sensor_id;sensor_type;location;lat;lon;timestamp;P1;durP1;ratioP1;P2;durP2;ratioP2
41946;SDS011;27638;42.184;24.848;2023-02-11T00:01:19;47.08;;;20.90;;
41946;SDS011;27638;42.184;24.848;2023-02-11T00:03:46;43.72;;;22.05;;
41946;SDS011;27638;42.184;24.848;2023-02-11T00:06:12;44.00;;;20.42;;
41946;SDS011;27638;42.184;24.848;2023-02-11T00:08:37;48.53;;;20.85;;
41946;SDS011;27638;42.184;24.848;2023-02-11T00:11:03;40.83;;;21.67;;
41946;SDS011;27638;42.184;24.848;2023-02-11T00:13:29;44.88;;;20.55;;
41946;SDS011;27638;42.184;24.848;2023-02-11T00:15:55;37.55;;;18.55;;
41946;SDS011;27638;42.184;24.848;2023-02-11T00:18:21;42.30;;;19.42;;
41946;SDS011;27638;42.184;24.848;2023-02-11T00:20:47;40.80;;;20.23;;
41946;SDS011;27638;42.184;24.848;2023-02-11T00:23:12;42.90;;;19.05;;
41946;SDS011;27638;42.184;24.848;2023-02-11T00:25:43;33.50;;;16.80;;
41946;SDS011;27638;42.184;24.848;2023-02-11T00:28:09;36.55;;;17.95;;
41946;SDS011;27638;42.184;24.848;2023-02-11T00:30:35;34.42;;;16.17;;
41946;SDS011;27638;42.184;24.848;2023-02-11T00:33:01;41.28;;;17.98;;
41946;SDS011;27638;42.184;24.848;2023-02-11T00:35:27;35.97;;;18.30;;
41946;SDS011;27638;42.184;24.848;2023-02-11T00:37:53;32.35;;;16.23;;
41946;SDS011;27638;42.184;24.848;2023-02-11T00:40:19;25.55;;;14.52;;
41946;SDS011;27638;42.184;24.848;2023-02-11T00:42:45;25.60;;;13.27;;
41946;SDS011;27638;42.184;24.848;2023-02-11T00:45:11;25.35;;;13.07;;
41946;SDS011;27638;42.184;24.848;2023-02-11T00:47:36;23.75;;;11.70;;
41946;SDS011;27638;42.184;24.848;2023-02-11T00:50:02;19.52;;;12.63;;
41946;SDS011;27638;42.184;24.848;2023-02-11T00:52:29;26.50;;;13.00;;
41946;SDS011;27638;42.184;24.848;2023-02-11T00:54:58;21.50;;;11.82;;
41946;SDS011;27638;42.184;24.848;2023-02-11T00:57:23;25.08;;;13.50;;
41946;SDS011;27638;42.184;24.848;2023-02-11T00:59:49;21.98;;;12.70;;
41946;SDS011;27638;42.184;24.848;2023-02-11T01:02:14;26.88;;;12.32;;
41946;SDS011;27638;42.184;24.848;2023-02-11T01:04:40;22.25;;;12.13;;
41946;SDS011;27638;42.184;24.848;2023-02-11T01:07:06;23.63;;;12.20;;
41946;SDS011;27638;42.184;24.848;2023-02-11T01:09:32;23.30;;;11.60;;
41946;SDS011;27638;42.184;24.848;2023-02-11T01:11:57;19.63;;;11.25;;
41946;SDS011;27638;42.184;24.848;2023-02-11T01:14:22;27.45;;;12.23;;
41946;SDS011;27638;42.184;24.848;2023-02-11T01:16:48;23.42;;;11.57;;
41946;SDS011;27638;42.184;24.848;2023-02-11T01:19:13;21.48;;;11.65;;
41946;SDS011;27638;42.184;24.848;2023-02-11T01:21:39;20.58;;;11.57;;
41946;SDS011;27638;42.184;24.848;2023-02-11T01:24:04;29.35;;;11.90;;
41946;SDS011;27638;42.184;24.848;2023-02-11T01:26:30;36.20;;;14.02;;
41946;SDS011;27638;42.184;24.848;2023-02-11T01:28:55;23.08;;;12.48;;
41946;SDS011;27638;42.184;24.848;2023-02-11T01:31:21;28.65;;;12.50;;
41946;SDS011;27638;42.184;24.848;2023-02-11T01:33:46;23.77;;;12.20;;
41946;SDS011;27638;42.184;24.848;2023-02-11T01:36:13;25.45;;;12.48;;
41946;SDS011;27638;42.184;24.848;2023-02-11T01:38:38;23.50;;;11.93;;
41946;SDS011;27638;42.184;24.848;2023-02-11T01:41:06;27.15;;;12.85;;
41946;SDS011;27638;42.184;24.848;2023-02-11T01:43:35;24.42;;;11.90;;
41946;SDS011;27638;42.184;24.848;2023-02-11T01:49:00;26.30;;;12.75;;
41946;SDS011;27638;42.184;24.848;2023-02-11T01:51:34;26.08;;;12.27;;
41946;SDS011;27638;42.184;24.848;2023-02-11T01:54:04;25.25;;;12.23;;
41946;SDS011;27638;42.184;24.848;2023-02-11T01:56:50;32.13;;;12.48;;
41946;SDS011;27638;42.184;24.848;2023-02-11T01:59:40;24.80;;;11.82;;
41946;SDS011;27638;42.184;24.848;2023-02-11T02:02:19;23.38;;;10.85;;
41946;SDS011;27638;42.184;24.848;2023-02-11T02:04:54;26.52;;;12.75;;
41946;SDS011;27638;42.184;24.848;2023-02-11T02:07:35;26.65;;;11.15;;
41946;SDS011;27638;42.184;24.848;2023-02-11T02:10:08;32.58;;;13.40;;
41946;SDS011;27638;42.184;24.848;2023-02-11T02:12:38;37.17;;;15.45;;
41946;SDS011;27638;42.184;24.848;2023-02-11T02:15:37;29.70;;;14.15;;
41946;SDS011;27638;42.184;24.848;2023-02-11T02:18:47;25.23;;;12.27;;
41946;SDS011;27638;42.184;24.848;2023-02-11T02:34:43;21.92;;;11.13;;
41946;SDS011;27638;42.184;24.848;2023-02-11T02:40:03;21.90;;;11.67;;
41946;SDS011;27638;42.184;24.848;2023-02-11T02:42:38;25.67;;;11.95;;
41946;SDS011;27638;42.184;24.848;2023-02-11T02:45:06;23.60;;;12.68;;
41946;SDS011;27638;42.184;24.848;2023-02-11T02:47:33;26.85;;;12.55;;
41946;SDS011;27638;42.184;24.848;2023-02-11T02:49:58;28.35;;;13.00;;
41946;SDS011;27638;42.184;24.848;2023-02-11T02:55:26;27.50;;;12.48;;
41946;SDS011;27638;42.184;24.848;2023-02-11T02:58:51;25.58;;;11.38;;
41946;SDS011;27638;42.184;24.848;2023-02-11T03:07:02;22.75;;;11.02;;
41946;SDS011;27638;42.184;24.848;2023-02-11T03:09:58;22.38;;;11.10;;
41946;SDS011;27638;42.184;24.848;2023-02-11T03:12:28;25.05;;;11.77;;
41946;SDS011;27638;42.184;24.848;2023-02-11T03:14:57;21.40;;;10.55;;
41946;SDS011;27638;42.184;24.848;2023-02-11T03:17:24;24.23;;;10.65;;
41946;SDS011;27638;42.184;24.848;2023-02-11T03:19:52;24.27;;;12.48;;
41946;SDS011;27638;42.184;24.848;2023-02-11T03:22:20;21.33;;;10.98;;
41946;SDS011;27638;42.184;24.848;2023-02-11T03:24:51;26.60;;;11.20;;
41946;SDS011;27638;42.184;24.848;2023-02-11T03:27:20;23.25;;;11.07;;
41946;SDS011;27638;42.184;24.848;2023-02-11T03:32:37;23.00;;;11.20;;
41946;SDS011;27638;42.184;24.848;2023-02-11T03:40:12;24.58;;;11.63;;
41946;SDS011;27638;42.184;24.848;2023-02-11T03:42:45;20.80;;;11.60;;
41946;SDS011;27638;42.184;24.848;2023-02-11T03:45:17;26.40;;;12.23;;
41946;SDS011;27638;42.184;24.848;2023-02-11T03:47:47;28.27;;;12.98;;
41946;SDS011;27638;42.184;24.848;2023-02-11T03:50:16;31.70;;;13.32;;
41946;SDS011;27638;42.184;24.848;2023-02-11T03:52:44;24.05;;;12.43;;
41946;SDS011;27638;42.184;24.848;2023-02-11T03:55:14;25.98;;;11.68;;
41946;SDS011;27638;42.184;24.848;2023-02-11T03:57:42;24.15;;;12.05;;
41946;SDS011;27638;42.184;24.848;2023-02-11T04:00:08;23.80;;;12.88;;
41946;SDS011;27638;42.184;24.848;2023-02-11T04:02:36;25.00;;;12.85;;
41946;SDS011;27638;42.184;24.848;2023-02-11T04:05:02;23.58;;;12.15;;
41946;SDS011;27638;42.184;24.848;2023-02-11T04:07:29;27.08;;;12.82;;
41946;SDS011;27638;42.184;24.848;2023-02-11T04:09:55;25.20;;;13.90;;
41946;SDS011;27638;42.184;24.848;2023-02-11T04:12:20;27.40;;;14.05;;
41946;SDS011;27638;42.184;24.848;2023-02-11T04:14:46;28.17;;;14.98;;
41946;SDS011;27638;42.184;24.848;2023-02-11T04:17:11;30.08;;;14.02;;
41946;SDS011;27638;42.184;24.848;2023-02-11T04:19:37;37.47;;;15.57;;
41946;SDS011;27638;42.184;24.848;2023-02-11T04:22:03;33.90;;;17.05;;
41946;SDS011;27638;42.184;24.848;2023-02-11T04:24:29;34.83;;;17.48;;
41946;SDS011;27638;42.184;24.848;2023-02-11T04:26:54;40.28;;;17.90;;
41946;SDS011;27638;42.184;24.848;2023-02-11T04:29:20;40.28;;;19.27;;
41946;SDS011;27638;42.184;24.848;2023-02-11T04:31:45;35.10;;;16.95;;
41946;SDS011;27638;42.184;24.848;2023-02-11T04:34:11;30.75;;;15.45;;
41946;SDS011;27638;42.184;24.848;2023-02-11T04:36:37;32.05;;;16.92;;
41946;SDS011;27638;42.184;24.848;2023-02-11T04:39:03;39.22;;;21.13;;
41946;SDS011;27638;42.184;24.848;2023-02-11T04:41:28;38.90;;;21.20;;
41946;SDS011;27638;42.184;24.848;2023-02-11T04:43:54;40.17;;;21.65;;
41946;SDS011;27638;42.184;24.848;2023-02-11T04:46:19;36.70;;;19.90;;
41946;SDS011;27638;42.184;24.848;2023-02-11T04:48:45;44.60;;;21.50;;
41946;SDS011;27638;42.184;24.848;2023-02-11T04:51:10;44.92;;;21.50;;
41946;SDS011;27638;42.184;24.848;2023-02-11T04:53:36;46.30;;;20.60;;
41946;SDS011;27638;42.184;24.848;2023-02-11T04:56:01;42.70;;;18.92;;
41946;SDS011;27638;42.184;24.848;2023-02-11T04:58:27;55.05;;;27.60;;
41946;SDS011;27638;42.184;24.848;2023-02-11T05:00:52;48.88;;;20.63;;
41946;SDS011;27638;42.184;24.848;2023-02-11T05:03:18;49.25;;;20.42;;
41946;SDS011;27638;42.184;24.848;2023-02-11T05:05:43;56.22;;;24.77;;
41946;SDS011;27638;42.184;24.848;2023-02-11T05:08:09;56.35;;;25.85;;
41946;SDS011;27638;42.184;24.848;2023-02-11T05:10:36;59.65;;;26.13;;
41946;SDS011;27638;42.184;24.848;2023-02-11T05:13:02;48.38;;;22.77;;
41946;SDS011;27638;42.184;24.848;2023-02-11T05:15:28;47.03;;;24.33;;
41946;SDS011;27638;42.184;24.848;2023-02-11T05:17:54;47.10;;;23.20;;
41946;SDS011;27638;42.184;24.848;2023-02-11T05:20:19;37.67;;;20.35;;
41946;SDS011;27638;42.184;24.848;2023-02-11T05:22:45;35.05;;;17.17;;
41946;SDS011;27638;42.184;24.848;2023-02-11T05:25:10;35.67;;;16.65;;
41946;SDS011;27638;42.184;24.848;2023-02-11T05:27:36;32.38;;;15.73;;
41946;SDS011;27638;42.184;24.848;2023-02-11T05:30:02;35.28;;;17.80;;
41946;SDS011;27638;42.184;24.848;2023-02-11T05:32:28;28.40;;;15.48;;
41946;SDS011;27638;42.184;24.848;2023-02-11T05:34:54;37.10;;;16.02;;
41946;SDS011;27638;42.184;24.848;2023-02-11T05:37:19;33.17;;;15.95;;
41946;SDS011;27638;42.184;24.848;2023-02-11T05:39:45;28.80;;;16.60;;
41946;SDS011;27638;42.184;24.848;2023-02-11T05:42:10;30.95;;;16.27;;
41946;SDS011;27638;42.184;24.848;2023-02-11T05:44:35;31.40;;;15.60;;
41946;SDS011;27638;42.184;24.848;2023-02-11T05:47:01;37.30;;;17.45;;
41946;SDS011;27638;42.184;24.848;2023-02-11T05:49:26;41.13;;;21.70;;
41946;SDS011;27638;42.184;24.848;2023-02-11T05:51:52;46.92;;;22.63;;
41946;SDS011;27638;42.184;24.848;2023-02-11T05:54:17;43.55;;;20.42;;
41946;SDS011;27638;42.184;24.848;2023-02-11T05:56:43;42.90;;;19.08;;
41946;SDS011;27638;42.184;24.848;2023-02-11T05:59:08;36.10;;;17.30;;
41946;SDS011;27638;42.184;24.848;2023-02-11T06:01:38;31.75;;;16.65;;
41946;SDS011;27638;42.184;24.848;2023-02-11T06:04:03;41.78;;;17.92;;
41946;SDS011;27638;42.184;24.848;2023-02-11T06:06:29;32.47;;;16.45;;
41946;SDS011;27638;42.184;24.848;2023-02-11T06:08:54;48.35;;;21.80;;
41946;SDS011;27638;42.184;24.848;2023-02-11T06:11:20;41.63;;;19.52;;
41946;SDS011;27638;42.184;24.848;2023-02-11T06:13:45;38.30;;;16.65;;
41946;SDS011;27638;42.184;24.848;2023-02-11T06:16:11;29.08;;;14.15;;
41946;SDS011;27638;42.184;24.848;2023-02-11T06:18:36;29.92;;;14.50;;
41946;SDS011;27638;42.184;24.848;2023-02-11T06:21:05;31.35;;;15.48;;
41946;SDS011;27638;42.184;24.848;2023-02-11T06:23:32;32.20;;;16.70;;
41946;SDS011;27638;42.184;24.848;2023-02-11T06:26:01;31.27;;;17.45;;
41946;SDS011;27638;42.184;24.848;2023-02-11T06:28:40;40.42;;;21.00;;
41946;SDS011;27638;42.184;24.848;2023-02-11T06:31:05;49.78;;;25.77;;
41946;SDS011;27638;42.184;24.848;2023-02-11T06:33:32;55.75;;;27.00;;
41946;SDS011;27638;42.184;24.848;2023-02-11T06:35:58;57.70;;;28.52;;
41946;SDS011;27638;42.184;24.848;2023-02-11T06:38:23;50.85;;;23.92;;
41946;SDS011;27638;42.184;24.848;2023-02-11T06:40:49;44.15;;;21.88;;
41946;SDS011;27638;42.184;24.848;2023-02-11T06:43:14;45.17;;;19.92;;
41946;SDS011;27638;42.184;24.848;2023-02-11T06:45:40;41.30;;;19.90;;
41946;SDS011;27638;42.184;24.848;2023-02-11T06:48:06;40.50;;;20.27;;
41946;SDS011;27638;42.184;24.848;2023-02-11T06:50:31;32.78;;;17.40;;
41946;SDS011;27638;42.184;24.848;2023-02-11T06:53:00;27.23;;;16.48;;
41946;SDS011;27638;42.184;24.848;2023-02-11T06:55:25;35.65;;;18.50;;
41946;SDS011;27638;42.184;24.848;2023-02-11T06:57:51;37.92;;;19.00;;
41946;SDS011;27638;42.184;24.848;2023-02-11T07:00:16;27.25;;;15.38;;
41946;SDS011;27638;42.184;24.848;2023-02-11T07:02:42;27.92;;;15.70;;
41946;SDS011;27638;42.184;24.848;2023-02-11T07:05:08;30.20;;;15.57;;
41946;SDS011;27638;42.184;24.848;2023-02-11T07:07:34;33.25;;;15.15;;
41946;SDS011;27638;42.184;24.848;2023-02-11T07:10:00;31.83;;;15.23;;
41946;SDS011;27638;42.184;24.848;2023-02-11T07:12:28;24.67;;;16.20;;
41946;SDS011;27638;42.184;24.848;2023-02-11T07:14:54;37.90;;;17.20;;
41946;SDS011;27638;42.184;24.848;2023-02-11T07:17:20;34.55;;;15.63;;
41946;SDS011;27638;42.184;24.848;2023-02-11T07:19:46;26.50;;;14.18;;
41946;SDS011;27638;42.184;24.848;2023-02-11T07:22:11;27.58;;;14.85;;
41946;SDS011;27638;42.184;24.848;2023-02-11T07:24:37;29.65;;;14.15;;
41946;SDS011;27638;42.184;24.848;2023-02-11T07:27:02;24.63;;;13.10;;
41946;SDS011;27638;42.184;24.848;2023-02-11T07:29:28;20.85;;;11.27;;
41946;SDS011;27638;42.184;24.848;2023-02-11T07:31:54;17.58;;;11.23;;
41946;SDS011;27638;42.184;24.848;2023-02-11T07:34:19;21.08;;;10.73;;
41946;SDS011;27638;42.184;24.848;2023-02-11T07:36:44;22.02;;;10.57;;
41946;SDS011;27638;42.184;24.848;2023-02-11T07:39:10;23.73;;;12.15;;
41946;SDS011;27638;42.184;24.848;2023-02-11T07:41:36;19.40;;;11.18;;
41946;SDS011;27638;42.184;24.848;2023-02-11T07:44:02;17.15;;;9.93;;
41946;SDS011;27638;42.184;24.848;2023-02-11T07:46:27;20.42;;;11.05;;
41946;SDS011;27638;42.184;24.848;2023-02-11T07:48:53;19.63;;;12.15;;
41946;SDS011;27638;42.184;24.848;2023-02-11T07:53:49;22.40;;;12.07;;
41946;SDS011;27638;42.184;24.848;2023-02-11T07:56:16;21.38;;;11.18;;
41946;SDS011;27638;42.184;24.848;2023-02-11T07:58:42;24.27;;;11.55;;
41946;SDS011;27638;42.184;24.848;2023-02-11T08:01:12;23.92;;;13.32;;
41946;SDS011;27638;42.184;24.848;2023-02-11T08:03:43;28.23;;;12.88;;
41946;SDS011;27638;42.184;24.848;2023-02-11T08:06:14;23.08;;;12.18;;
41946;SDS011;27638;42.184;24.848;2023-02-11T08:08:42;20.58;;;11.82;;
41946;SDS011;27638;42.184;24.848;2023-02-11T08:11:08;30.92;;;13.77;;
41946;SDS011;27638;42.184;24.848;2023-02-11T08:13:37;25.77;;;13.77;;
41946;SDS011;27638;42.184;24.848;2023-02-11T08:16:03;24.85;;;11.43;;
41946;SDS011;27638;42.184;24.848;2023-02-11T08:18:30;20.20;;;11.32;;
41946;SDS011;27638;42.184;24.848;2023-02-11T08:20:56;20.33;;;11.73;;
41946;SDS011;27638;42.184;24.848;2023-02-11T08:23:27;22.98;;;12.60;;
41946;SDS011;27638;42.184;24.848;2023-02-11T08:25:52;22.85;;;12.27;;
41946;SDS011;27638;42.184;24.848;2023-02-11T08:28:18;22.90;;;12.25;;
41946;SDS011;27638;42.184;24.848;2023-02-11T08:30:43;19.33;;;12.10;;
41946;SDS011;27638;42.184;24.848;2023-02-11T08:33:09;23.25;;;11.82;;
41946;SDS011;27638;42.184;24.848;2023-02-11T08:35:34;22.13;;;11.82;;
41946;SDS011;27638;42.184;24.848;2023-02-11T08:38:00;22.60;;;11.75;;
41946;SDS011;27638;42.184;24.848;2023-02-11T08:40:26;22.35;;;12.75;;
41946;SDS011;27638;42.184;24.848;2023-02-11T08:42:51;23.60;;;13.02;;
41946;SDS011;27638;42.184;24.848;2023-02-11T08:45:17;21.75;;;12.27;;
41946;SDS011;27638;42.184;24.848;2023-02-11T08:47:42;23.70;;;11.80;;
41946;SDS011;27638;42.184;24.848;2023-02-11T08:50:08;18.17;;;11.48;;
41946;SDS011;27638;42.184;24.848;2023-02-11T08:52:34;21.60;;;11.38;;
41946;SDS011;27638;42.184;24.848;2023-02-11T08:55:00;21.02;;;12.00;;
41946;SDS011;27638;42.184;24.848;2023-02-11T08:57:25;22.67;;;12.07;;
41946;SDS011;27638;42.184;24.848;2023-02-11T08:59:51;20.83;;;11.60;;
41946;SDS011;27638;42.184;24.848;2023-02-11T09:02:16;18.83;;;11.50;;
41946;SDS011;27638;42.184;24.848;2023-02-11T09:04:45;22.63;;;12.75;;
41946;SDS011;27638;42.184;24.848;2023-02-11T09:07:10;24.33;;;12.80;;
41946;SDS011;27638;42.184;24.848;2023-02-11T09:09:37;20.45;;;11.57;;
41946;SDS011;27638;42.184;24.848;2023-02-11T09:12:02;25.90;;;11.93;;
41946;SDS011;27638;42.184;24.848;2023-02-11T09:14:28;24.42;;;12.50;;
41946;SDS011;27638;42.184;24.848;2023-02-11T09:16:53;26.08;;;12.90;;
41946;SDS011;27638;42.184;24.848;2023-02-11T09:19:19;26.77;;;13.57;;
41946;SDS011;27638;42.184;24.848;2023-02-11T09:21:45;24.52;;;13.43;;
41946;SDS011;27638;42.184;24.848;2023-02-11T09:24:11;28.52;;;13.82;;
41946;SDS011;27638;42.184;24.848;2023-02-11T09:26:36;31.02;;;14.40;;
41946;SDS011;27638;42.184;24.848;2023-02-11T09:29:02;25.02;;;12.98;;
41946;SDS011;27638;42.184;24.848;2023-02-11T09:31:29;21.92;;;12.55;;
41946;SDS011;27638;42.184;24.848;2023-02-11T09:33:58;26.40;;;13.40;;
41946;SDS011;27638;42.184;24.848;2023-02-11T09:36:26;23.15;;;12.55;;
41946;SDS011;27638;42.184;24.848;2023-02-11T09:38:57;22.13;;;11.93;;
41946;SDS011;27638;42.184;24.848;2023-02-11T09:44:05;22.90;;;12.85;;
41946;SDS011;27638;42.184;24.848;2023-02-11T09:46:35;22.15;;;12.07;;
41946;SDS011;27638;42.184;24.848;2023-02-11T09:49:05;20.80;;;11.98;;
41946;SDS011;27638;42.184;24.848;2023-02-11T09:51:36;20.35;;;11.88;;
41946;SDS011;27638;42.184;24.848;2023-02-11T09:54:10;18.23;;;11.02;;
41946;SDS011;27638;42.184;24.848;2023-02-11T09:56:39;22.52;;;11.70;;
41946;SDS011;27638;42.184;24.848;2023-02-11T09:59:06;19.63;;;10.45;;
41946;SDS011;27638;42.184;24.848;2023-02-11T10:01:44;16.75;;;8.57;;
41946;SDS011;27638;42.184;24.848;2023-02-11T10:12:52;17.60;;;10.88;;
41946;SDS011;27638;42.184;24.848;2023-02-11T10:15:46;22.05;;;10.05;;
41946;SDS011;27638;42.184;24.848;2023-02-11T10:21:42;19.67;;;9.82;;
41946;SDS011;27638;42.184;24.848;2023-02-11T10:24:16;20.10;;;10.40;;
41946;SDS011;27638;42.184;24.848;2023-02-11T10:26:42;20.92;;;12.23;;
41946;SDS011;27638;42.184;24.848;2023-02-11T10:29:12;16.17;;;9.82;;
41946;SDS011;27638;42.184;24.848;2023-02-11T10:32:00;18.55;;;9.48;;
41946;SDS011;27638;42.184;24.848;2023-02-11T10:34:29;15.40;;;8.55;;
41946;SDS011;27638;42.184;24.848;2023-02-11T10:36:55;21.95;;;9.70;;
41946;SDS011;27638;42.184;24.848;2023-02-11T10:39:21;13.55;;;8.15;;
41946;SDS011;27638;42.184;24.848;2023-02-11T10:41:54;15.05;;;8.80;;
41946;SDS011;27638;42.184;24.848;2023-02-11T10:44:24;16.08;;;8.68;;
41946;SDS011;27638;42.184;24.848;2023-02-11T10:46:55;14.25;;;7.88;;
41946;SDS011;27638;42.184;24.848;2023-02-11T10:49:36;16.17;;;8.88;;
41946;SDS011;27638;42.184;24.848;2023-02-11T10:54:57;12.85;;;8.20;;
41946;SDS011;27638;42.184;24.848;2023-02-11T11:02:42;17.25;;;9.23;;
41946;SDS011;27638;42.184;24.848;2023-02-11T11:05:15;16.60;;;8.57;;
41946;SDS011;27638;42.184;24.848;2023-02-11T11:07:53;16.17;;;8.23;;
41946;SDS011;27638;42.184;24.848;2023-02-11T11:12:52;14.45;;;8.40;;
41946;SDS011;27638;42.184;24.848;2023-02-11T11:15:19;14.80;;;7.55;;
41946;SDS011;27638;42.184;24.848;2023-02-11T11:18:26;15.57;;;8.23;;
41946;SDS011;27638;42.184;24.848;2023-02-11T11:20:58;16.52;;;8.48;;
41946;SDS011;27638;42.184;24.848;2023-02-11T11:23:26;15.52;;;8.35;;
41946;SDS011;27638;42.184;24.848;2023-02-11T11:25:59;13.65;;;7.80;;
41946;SDS011;27638;42.184;24.848;2023-02-11T11:31:23;18.50;;;8.68;;
41946;SDS011;27638;42.184;24.848;2023-02-11T11:33:53;13.75;;;7.38;;
41946;SDS011;27638;42.184;24.848;2023-02-11T11:36:22;15.05;;;8.38;;
41946;SDS011;27638;42.184;24.848;2023-02-11T11:39:00;15.00;;;8.20;;
41946;SDS011;27638;42.184;24.848;2023-02-11T11:41:47;14.20;;;7.90;;
41946;SDS011;27638;42.184;24.848;2023-02-11T11:44:19;14.48;;;8.20;;
41946;SDS011;27638;42.184;24.848;2023-02-11T11:46:49;12.25;;;7.72;;
41946;SDS011;27638;42.184;24.848;2023-02-11T11:52:49;36.88;;;14.77;;
41946;SDS011;27638;42.184;24.848;2023-02-11T11:55:42;15.15;;;8.15;;
41946;SDS011;27638;42.184;24.848;2023-02-11T11:58:16;20.08;;;9.25;;
41946;SDS011;27638;42.184;24.848;2023-02-11T12:00:54;14.77;;;8.63;;
41946;SDS011;27638;42.184;24.848;2023-02-11T12:12:09;15.60;;;9.05;;
41946;SDS011;27638;42.184;24.848;2023-02-11T12:14:54;14.70;;;7.63;;
41946;SDS011;27638;42.184;24.848;2023-02-11T12:20:21;13.80;;;7.90;;
41946;SDS011;27638;42.184;24.848;2023-02-11T12:23:18;13.63;;;7.85;;
41946;SDS011;27638;42.184;24.848;2023-02-11T12:31:25;12.48;;;8.60;;
41946;SDS011;27638;42.184;24.848;2023-02-11T12:42:25;16.80;;;8.35;;
41946;SDS011;27638;42.184;24.848;2023-02-11T12:51:00;16.98;;;9.60;;
41946;SDS011;27638;42.184;24.848;2023-02-11T12:56:19;14.00;;;7.93;;
41946;SDS011;27638;42.184;24.848;2023-02-11T12:59:09;13.70;;;8.98;;
41946;SDS011;27638;42.184;24.848;2023-02-11T13:01:39;18.55;;;8.55;;
41946;SDS011;27638;42.184;24.848;2023-02-11T13:07:09;16.38;;;8.20;;
41946;SDS011;27638;42.184;24.848;2023-02-11T13:09:44;15.63;;;8.77;;
41946;SDS011;27638;42.184;24.848;2023-02-11T13:12:19;16.25;;;8.00;;
41946;SDS011;27638;42.184;24.848;2023-02-11T13:15:06;14.00;;;8.55;;
41946;SDS011;27638;42.184;24.848;2023-02-11T13:20:35;18.80;;;8.00;;
41946;SDS011;27638;42.184;24.848;2023-02-11T13:25:52;27.40;;;13.43;;
41946;SDS011;27638;42.184;24.848;2023-02-11T13:31:02;15.95;;;8.95;;
41946;SDS011;27638;42.184;24.848;2023-02-11T13:38:32;13.80;;;7.90;;
41946;SDS011;27638;42.184;24.848;2023-02-11T13:41:09;16.80;;;8.82;;
41946;SDS011;27638;42.184;24.848;2023-02-11T13:43:41;15.23;;;9.00;;
41946;SDS011;27638;42.184;24.848;2023-02-11T13:46:09;15.75;;;8.30;;
41946;SDS011;27638;42.184;24.848;2023-02-11T13:48:37;15.90;;;8.63;;
41946;SDS011;27638;42.184;24.848;2023-02-11T13:51:10;15.80;;;8.02;;
41946;SDS011;27638;42.184;24.848;2023-02-11T13:53:45;16.67;;;8.07;;
41946;SDS011;27638;42.184;24.848;2023-02-11T13:58:59;15.07;;;8.20;;
41946;SDS011;27638;42.184;24.848;2023-02-11T14:04:36;14.80;;;8.73;;
41946;SDS011;27638;42.184;24.848;2023-02-11T14:07:54;17.42;;;9.20;;
41946;SDS011;27638;42.184;24.848;2023-02-11T14:10:54;12.90;;;8.02;;
41946;SDS011;27638;42.184;24.848;2023-02-11T14:21:09;15.02;;;7.72;;
41946;SDS011;27638;42.184;24.848;2023-02-11T14:23:37;15.23;;;8.52;;
41946;SDS011;27638;42.184;24.848;2023-02-11T14:26:27;14.32;;;8.05;;
41946;SDS011;27638;42.184;24.848;2023-02-11T14:31:53;12.82;;;7.28;;
41946;SDS011;27638;42.184;24.848;2023-02-11T14:34:50;16.15;;;7.60;;
41946;SDS011;27638;42.184;24.848;2023-02-11T14:43:20;16.02;;;7.38;;
41946;SDS011;27638;42.184;24.848;2023-02-11T14:45:49;11.48;;;6.95;;
41946;SDS011;27638;42.184;24.848;2023-02-11T14:48:19;13.55;;;7.30;;
41946;SDS011;27638;42.184;24.848;2023-02-11T14:50:50;10.50;;;5.95;;
41946;SDS011;27638;42.184;24.848;2023-02-11T14:53:23;14.35;;;6.80;;
41946;SDS011;27638;42.184;24.848;2023-02-11T14:55:50;12.98;;;6.60;;
41946;SDS011;27638;42.184;24.848;2023-02-11T14:58:17;13.23;;;6.57;;
41946;SDS011;27638;42.184;24.848;2023-02-11T15:05:56;10.85;;;6.10;;
41946;SDS011;27638;42.184;24.848;2023-02-11T15:08:24;11.75;;;6.53;;
41946;SDS011;27638;42.184;24.848;2023-02-11T15:10:51;11.82;;;6.75;;
41946;SDS011;27638;42.184;24.848;2023-02-11T15:13:19;11.60;;;6.15;;
41946;SDS011;27638;42.184;24.848;2023-02-11T15:15:55;9.35;;;6.65;;
41946;SDS011;27638;42.184;24.848;2023-02-11T15:18:25;11.63;;;6.28;;
41946;SDS011;27638;42.184;24.848;2023-02-11T15:20:58;12.70;;;7.35;;
41946;SDS011;27638;42.184;24.848;2023-02-11T15:23:25;13.73;;;7.13;;
41946;SDS011;27638;42.184;24.848;2023-02-11T15:25:53;13.55;;;7.60;;
41946;SDS011;27638;42.184;24.848;2023-02-11T15:28:25;15.18;;;8.00;;
41946;SDS011;27638;42.184;24.848;2023-02-11T15:30:55;20.73;;;11.82;;
41946;SDS011;27638;42.184;24.848;2023-02-11T15:33:38;19.73;;;11.27;;
41946;SDS011;27638;42.184;24.848;2023-02-11T15:36:03;22.40;;;11.43;;
41946;SDS011;27638;42.184;24.848;2023-02-11T15:38:29;30.67;;;15.57;;
41946;SDS011;27638;42.184;24.848;2023-02-11T15:40:56;47.53;;;22.88;;
41946;SDS011;27638;42.184;24.848;2023-02-11T15:43:22;45.08;;;23.63;;
41946;SDS011;27638;42.184;24.848;2023-02-11T15:48:18;80.32;;;36.92;;
41946;SDS011;27638;42.184;24.848;2023-02-11T15:50:54;121.60;;;48.35;;
41946;SDS011;27638;42.184;24.848;2023-02-11T15:53:30;132.00;;;48.95;;
41946;SDS011;27638;42.184;24.848;2023-02-11T15:56:11;121.70;;;47.30;;
41946;SDS011;27638;42.184;24.848;2023-02-11T15:58:44;116.88;;;45.20;;
41946;SDS011;27638;42.184;24.848;2023-02-11T16:01:11;77.05;;;38.95;;
41946;SDS011;27638;42.184;24.848;2023-02-11T16:03:37;66.82;;;34.85;;
41946;SDS011;27638;42.184;24.848;2023-02-11T16:06:24;23.40;;;11.85;;
41946;SDS011;27638;42.184;24.848;2023-02-11T16:09:18;22.33;;;10.75;;
41946;SDS011;27638;42.184;24.848;2023-02-11T16:14:32;12.63;;;8.20;;
41946;SDS011;27638;42.184;24.848;2023-02-11T16:19:41;12.38;;;7.38;;
41946;SDS011;27638;42.184;24.848;2023-02-11T16:22:09;12.18;;;6.85;;
41946;SDS011;27638;42.184;24.848;2023-02-11T16:24:39;12.02;;;7.40;;
41946;SDS011;27638;42.184;24.848;2023-02-11T16:27:19;14.50;;;7.28;;
41946;SDS011;27638;42.184;24.848;2023-02-11T16:29:47;11.77;;;7.07;;
41946;SDS011;27638;42.184;24.848;2023-02-11T16:34:39;21.67;;;11.60;;
41946;SDS011;27638;42.184;24.848;2023-02-11T16:37:05;13.70;;;7.32;;
41946;SDS011;27638;42.184;24.848;2023-02-11T16:39:30;16.42;;;9.85;;
41946;SDS011;27638;42.184;24.848;2023-02-11T16:41:56;22.20;;;10.52;;
41946;SDS011;27638;42.184;24.848;2023-02-11T16:44:22;14.25;;;7.75;;
41946;SDS011;27638;42.184;24.848;2023-02-11T16:46:48;16.02;;;8.00;;
41946;SDS011;27638;42.184;24.848;2023-02-11T16:49:21;13.98;;;7.18;;
41946;SDS011;27638;42.184;24.848;2023-02-11T16:51:50;15.73;;;8.15;;
41946;SDS011;27638;42.184;24.848;2023-02-11T16:54:20;22.48;;;10.10;;
41946;SDS011;27638;42.184;24.848;2023-02-11T16:56:46;18.05;;;9.68;;
41946;SDS011;27638;42.184;24.848;2023-02-11T16:59:11;21.15;;;10.27;;
41946;SDS011;27638;42.184;24.848;2023-02-11T17:01:37;36.22;;;20.15;;
41946;SDS011;27638;42.184;24.848;2023-02-11T17:04:04;48.20;;;24.63;;